Hlavní strana
METAR-TAF:

METAR-TAF

Letiště :

El Bayadh, Alžírsko

zeměpisná šířka: 33-43-15N, zeměpisná délka: 1-05-29E, výška: 1366 m

Aktuální stav počasí

Zpráva byla vytvořena před 1 hodinou a 11 minutami, v 02:00 UTC
Východojihovýchodní vítr 3 kt
Teplota 8°C
Vlhkost vzduchu 66%
Tlak 1028 hPa
Viditelnost 10 km a více
Žádná oblačnost pod 1500 m, nevyskytují se cumulonimby.

METAR: DAOY 220200Z 12003KT CAVOK 08/02 Q1028

Čas: 04:11 (03:11 UTC)


TAF: chybějící

Stav a předpovědi počasí z více než 4 000 letišť (zprávy METAR a TAF).

Červené a žluté tečky na mapě představují dostupné meteorologické stanice.

Když kurzor umístíte na tečku, zobrazí se název stanice.

Pak kliknutím zobrazíte stav a předpověď počasí.

Chcete-li změnit mapu, kliknutím na zelené tlačítko se znaménkem +mapu přiblížíte, kliknutím na zelené tlačítko se znaménkem – mapu oddálíte a kliknutím na zelené šipky přejdete na sousední mapy.


METAR-TAF: